Bg Felixstowe — V2BR7 — position and weather

sailwx.info

Track history (hours):
 
Tides and Currents Weather Stations Pressure Air Temp Water Temp Dewpoint Dewpoint Depression Visibility Wind Speed Wind Dir Waves Ship Positions

Bg Felixstowe

Last reported at 2016-Sep-26 02:33 UTC. Time now 2016-Sep-27 12:09 UTC.
Position N 25°43' W 080°02'.

Length 139 m; draft 6.8 m.

Type: Ship. MMSI: 304906000.

Date/timePositionNaut miles runAvg speedWind from/ knotsBaromVisibWave heightAir tempDewpointWater temp
2016-Sep-26 02:33N 25°43' W 080°02'8 7.6
2016-Sep-26 01:32N 25°46' W 080°10'0 0.0
2016-Sep-26 00:32N 25°46' W 080°10'0 0.0
2016-Sep-25 21:31N 25°46' W 080°10'0 0.0
2016-Sep-25 17:29N 25°46' W 080°10'0 0.0
2016-Sep-25 16:32N 25°46' W 080°10'0 0.0
2016-Sep-25 15:31N 25°46' W 080°10'0 0.0
2016-Sep-25 14:31N 25°46' W 080°10'0 0.0
2016-Sep-25 12:33N 25°46' W 080°10'1 1.4
2016-Sep-25 11:33N 25°46' W 080°09'9 8.9
2016-Sep-25 10:33N 25°40' W 080°01'1716.8
2016-Sep-25 09:33N 25°23' W 079°60'  
2016-Sep-19 03:33N 25°32' W 079°60'1413.6
2016-Sep-19 02:33N 25°45' W 080°04'6 2.9
2016-Sep-19 00:31N 25°46' W 080°10'0 0.0
2016-Sep-18 19:32N 25°46' W 080°10'0 0.0
2016-Sep-18 15:33N 25°46' W 080°10'0 0.0
2016-Sep-18 14:32N 25°46' W 080°10'24 6.0
2016-Sep-18 10:33N 25°24' W 080°00'  
Track history (hours):
 
Tides and Currents Weather Stations Pressure Air Temp Water Temp Dewpoint Dewpoint Depression Visibility Wind Speed Wind Dir Waves Ship Positions

Bg Felixstowe

Last reported at 2016-Sep-26 02:33 UTC. Time now 2016-Sep-27 12:09 UTC.
Position N 25°43' W 080°02'.

Length 139 m; draft 6.8 m.

Type: Ship. MMSI: 304906000.

Date/timePositionNaut miles runAvg speedWind from/ knotsBaromVisibWave heightAir tempDewpointWater temp
2016-Sep-26 02:33N 25°43' W 080°02'8 7.6
2016-Sep-26 01:32N 25°46' W 080°10'0 0.0
2016-Sep-26 00:32N 25°46' W 080°10'0 0.0
2016-Sep-25 21:31N 25°46' W 080°10'0 0.0
2016-Sep-25 17:29N 25°46' W 080°10'0 0.0
2016-Sep-25 16:32N 25°46' W 080°10'0 0.0
2016-Sep-25 15:31N 25°46' W 080°10'0 0.0
2016-Sep-25 14:31N 25°46' W 080°10'0 0.0
2016-Sep-25 12:33N 25°46' W 080°10'1 1.4
2016-Sep-25 11:33N 25°46' W 080°09'9 8.9
2016-Sep-25 10:33N 25°40' W 080°01'1716.8
2016-Sep-25 09:33N 25°23' W 079°60'  
2016-Sep-19 03:33N 25°32' W 079°60'1413.6
2016-Sep-19 02:33N 25°45' W 080°04'6 2.9
2016-Sep-19 00:31N 25°46' W 080°10'0 0.0
2016-Sep-18 19:32N 25°46' W 080°10'0 0.0
2016-Sep-18 15:33N 25°46' W 080°10'0 0.0
2016-Sep-18 14:32N 25°46' W 080°10'24 6.0
2016-Sep-18 10:33N 25°24' W 080°00'  

Dump ship's entire track history